Reklama

Seznam meteostanic a jejich METAR

Vyhledat místa podle abecedy:
A B C D E F G H I J K L M N O P Q R S T U V W X Y Z

Filtrovat:

ID stanice:
a/nebo
Název místa (fulltext):
 
Místo (ID)Naposledy načteno 
Holešov (Holesov) 07.04.2020 23:00 UTC Zobrazit data
Místo: Holešov
Teplota: 4 °C (pocitová: 15.6 °C)
Vítr: 0 m/s z(e) 0°
Počasí:
Dohlednost: 35 km
Zákl. oblačnosti: N/A
Vlhkost: 52%
Hamburg (EDDH) 07.04.2020 22:50 UTC Zobrazit METAR
EDDH 072250Z 11005KT CAVOK 09/02 Q1032 NOSIG
Hannover (EDDV) 07.04.2020 22:50 UTC Zobrazit METAR
EDDV 072250Z 10005KT CAVOK 11/03 Q1031
Hanoi (VVNB) 07.04.2020 23:00 UTC Zobrazit METAR
VVNB 072300Z 30002KT 1800 -DZ BR FEW003 BKN021 18/17 Q1016 TEMPO 1400 DZ BR
Harare (FVHA) 13.09.2018 03:00 UTC Zobrazit METAR
FVHA 130300Z 07008KT CAVOK 14/07 Q1022 NOSIG
Havana (MUHA) 07.04.2020 22:55 UTC Zobrazit METAR
MUHA 072255Z 34007KT 9000 FEW030 28/19 Q1016
Helsinki (EFHK) 07.04.2020 22:50 UTC Zobrazit METAR
EFHK 072250Z 30011KT CAVOK 05/03 Q1020 NOSIG
Hong Kong (VHHH) 07.04.2020 23:00 UTC Zobrazit METAR
VHHH 072300Z 11008KT 9999 FEW016 SCT025 20/16 Q1016 NOSIG
Honiara (AGGH) 07.04.2020 23:00 UTC Zobrazit METAR
AGGH 072300Z 16002KT 9999 FEW018 30/24 Q1009
Horta (LPHR) 07.04.2020 20:00 UTC Zobrazit METAR
LPHR 072000Z 22016KT 9999 SCT007 SCT011 18/16 Q1004
Reklama

Počasí na Váš email

Emaily jsou bez reklamy a bez spamu



Odhlásit newsletter

Reklama


Lunární kalendář

  • 15.04.
  • 23.04.
  • 30.04.
  • 07.05.





Vyhledat na internetu:
Reklama